Time;durP1;ratioP1;P1;durP2;ratioP2;P2;SDS_P1;SDS_P2;PMS_P1;PMS_P2;Temp;Humidity;BMP_temperature;BMP_pressure;BME280_temperature;BME280_humidity;BME280_pressure;Samples;Min_cycle;Max_cycle;Signal;HPM_P1;HPM_P2
2022/12/31 00:02:41;;;;;;;1.27;1.17;;;;;;;8.74;100.00;99682.19;6237474;28;20037;-90
2022/12/31 00:05:43;;;;;;;1.25;1.08;;;;;;;8.83;100.00;99680.63;6232404;28;20044;-90
2022/12/31 00:08:45;;;;;;;1.52;1.20;;;;;;;8.84;100.00;99690.81;6238081;28;20049;-90
2022/12/31 00:11:47;;;;;;;1.83;1.08;;;;;;;8.81;100.00;99683.31;6233478;28;20064;-89
2022/12/31 00:14:49;;;;;;;1.50;1.20;;;;;;;8.81;100.00;99680.72;6232318;28;20155;-90
2022/12/31 00:17:51;;;;;;;1.20;1.00;;;;;;;8.75;100.00;99683.03;6232083;28;20053;-90
2022/12/31 00:20:52;;;;;;;1.10;1.00;;;;;;;8.77;100.00;99689.69;6222707;28;20037;-90
2022/12/31 00:23:55;;;;;;;1.30;1.10;;;;;;;8.82;100.00;99692.69;6238002;28;20037;-90
2022/12/31 00:26:57;;;;;;;0.82;0.82;;;;;;;8.87;100.00;99696.63;6236626;28;20120;-90
2022/12/31 00:29:58;;;;;;;1.15;1.00;;;;;;;8.83;100.00;99685.78;6236093;28;20522;-90
2022/12/31 00:33:06;;;;;;;2.60;1.17;;;;;;;8.82;100.00;99679.81;6221031;28;20491;-90
2022/12/31 00:36:16;;;;;;;1.20;0.88;;;;;;;8.81;100.00;99685.06;6237905;28;20056;-90
2022/12/31 00:39:18;;;;;;;1.40;1.17;;;;;;;8.81;100.00;99685.88;6227327;28;20053;-90
2022/12/31 00:42:20;;;;;;;2.83;1.00;;;;;;;8.83;100.00;99681.41;6234997;28;20503;-90
2022/12/31 00:45:22;;;;;;;1.40;1.10;;;;;;;8.94;100.00;99695.16;6233098;28;20041;-90
2022/12/31 00:48:24;;;;;;;2.38;1.10;;;;;;;9.05;100.00;99702.81;6236566;28;20100;-89
2022/12/31 00:51:28;;;;;;;0.88;0.85;;;;;;;9.05;100.00;99702.81;6231839;28;20052;-88
2022/12/31 00:54:30;;;;;;;1.77;1.00;;;;;;;9.12;100.00;99703.09;6234883;28;20038;-88
2022/12/31 00:57:32;;;;;;;1.23;1.13;;;;;;;9.16;100.00;99691.56;6234600;28;20049;-90
2022/12/31 01:00:35;;;;;;;3.25;0.90;;;;;;;9.25;100.00;99696.75;6231209;28;20045;-88
2022/12/31 01:03:37;;;;;;;2.55;1.20;;;;;;;9.24;100.00;99691.72;6230388;28;20057;-88
2022/12/31 01:06:40;;;;;;;1.95;1.10;;;;;;;9.27;100.00;99696.63;6236584;28;20037;-88
2022/12/31 01:09:42;;;;;;;1.25;1.15;;;;;;;9.33;100.00;99695.28;6236281;28;20060;-88
2022/12/31 01:12:44;;;;;;;1.80;1.10;;;;;;;9.33;100.00;99706.41;6226608;28;20041;-89
2022/12/31 01:15:46;;;;;;;2.13;1.10;;;;;;;9.36;100.00;99710.50;6229375;28;20045;-89
2022/12/31 01:18:48;;;;;;;1.40;1.10;;;;;;;9.37;100.00;99723.28;6230947;28;20543;-90
2022/12/31 01:21:51;;;;;;;3.65;1.08;;;;;;;9.42;100.00;99723.69;6219287;28;20045;-89
2022/12/31 01:24:53;;;;;;;1.10;1.00;;;;;;;9.40;100.00;99711.88;6233460;28;20038;-90
2022/12/31 01:27:55;;;;;;;1.50;1.30;;;;;;;9.42;100.00;99721.13;6235892;28;20037;-90
2022/12/31 01:30:57;;;;;;;1.33;1.15;;;;;;;9.43;100.00;99714.19;6213294;28;20408;-90
2022/12/31 01:33:59;;;;;;;2.00;1.00;;;;;;;9.41;100.00;99714.31;6233191;28;20045;-90
2022/12/31 01:37:01;;;;;;;1.45;0.85;;;;;;;9.41;100.00;99716.06;6233573;28;20053;-89
2022/12/31 01:40:03;;;;;;;3.65;1.00;;;;;;;9.40;100.00;99714.44;6229434;28;20499;-90
2022/12/31 01:43:17;;;;;;;1.30;0.82;;;;;;;9.41;100.00;99716.06;6233842;28;20141;-90
2022/12/31 01:46:42;;;;;;;2.58;0.93;;;;;;;9.43;100.00;99721.94;6236558;28;20056;-90
2022/12/31 01:49:56;;;;;;;1.58;0.90;;;;;;;9.41;100.00;99719.47;6232212;28;20552;-88
2022/12/31 01:53:06;;;;;;;1.15;0.90;;;;;;;9.47;100.00;99728.47;6207626;28;20038;-87
2022/12/31 01:56:08;;;;;;;1.60;0.90;;;;;;;9.51;100.00;99729.00;6230654;28;20060;-88
2022/12/31 01:59:14;;;;;;;1.13;0.90;;;;;;;9.54;100.00;99716.66;6235930;28;20046;-88
2022/12/31 02:02:16;;;;;;;1.10;0.75;;;;;;;9.55;100.00;99717.47;6236560;28;20088;-89
2022/12/31 02:05:26;;;;;;;1.58;1.10;;;;;;;9.54;100.00;99706.31;6236617;28;20053;-89
2022/12/31 02:08:27;;;;;;;3.40;0.70;;;;;;;9.57;100.00;99697.47;6233518;28;20041;-89
2022/12/31 02:11:35;;;;;;;1.00;0.80;;;;;;;9.54;100.00;99703.75;6232111;28;20034;-93
2022/12/31 02:14:41;;;;;;;0.88;0.80;;;;;;;9.56;100.00;99695.84;6233548;28;20060;-94
2022/12/31 02:18:00;;;;;;;0.70;0.70;;;;;;;9.55;100.00;99689.84;6216134;28;20231;-94
2022/12/31 02:21:18;;;;;;;0.80;0.70;;;;;;;9.53;100.00;99690.94;6238133;28;20042;-94
2022/12/31 02:24:38;;;;;;;0.90;0.80;;;;;;;9.54;100.00;99685.66;6239145;28;20050;-94
2022/12/31 02:27:50;;;;;;;1.15;0.70;;;;;;;9.49;100.00;99675.72;6211460;28;20495;-95
2022/12/31 02:31:32;;;;;;;1.00;0.90;;;;;;;9.52;100.00;99669.47;6230831;28;20041;-94
2022/12/31 02:34:49;;;;;;;1.02;0.70;;;;;;;9.52;100.00;99669.47;6123481;28;20054;-94
2022/12/31 02:37:59;;;;;;;1.95;0.70;;;;;;;9.55;100.00;99666.59;6140531;28;20063;-94
2022/12/31 02:41:01;;;;;;;1.42;0.77;;;;;;;9.54;100.00;99666.72;6138449;28;20118;-95
2022/12/31 02:44:24;;;;;;;0.52;0.52;;;;;;;9.54;100.00;99680.50;6140893;28;20058;-94
2022/12/31 02:48:01;;;;;;;1.08;0.70;;;;;;;9.58;100.00;99670.69;6141372;28;20888;-94
2022/12/31 02:51:18;;;;;;;0.88;0.52;;;;;;;9.60;100.00;99672.19;6023992;29;20085;-94
2022/12/31 02:54:38;;;;;;;2.47;0.80;;;;;;;9.65;100.00;99675.16;6013022;29;20065;-94
2022/12/31 02:58:05;;;;;;;0.55;0.55;;;;;;;9.79;100.00;99661.03;6024579;29;20069;-95
2022/12/31 03:04:31;;;;;;;0.88;0.75;;;;;;;9.90;100.00;99652.31;6013315;29;20083;-94
2022/12/31 03:07:33;;;;;;;0.43;0.40;;;;;;;9.95;100.00;99647.53;6023362;29;20136;-93
2022/12/31 03:10:35;;;;;;;1.05;0.70;;;;;;;9.99;100.00;99640.31;6070303;29;20183;-92
2022/12/31 03:13:37;;;;;;;1.38;0.50;;;;;;;10.05;100.00;99634.59;6081101;29;20048;-88
2022/12/31 03:16:39;;;;;;;0.82;0.50;;;;;;;10.07;100.00;99633.50;6099544;29;20039;-94
2022/12/31 03:23:11;;;;;;;1.25;0.63;;;;;;;10.11;100.00;99627.09;6083623;29;20550;-91
2022/12/31 03:26:12;;;;;;;1.98;0.80;;;;;;;10.13;100.00;99614.81;6113096;28;20053;-90
2022/12/31 03:29:14;;;;;;;1.25;0.50;;;;;;;10.11;100.00;99619.34;6236231;28;20042;-91
2022/12/31 03:32:16;;;;;;;0.55;0.40;;;;;;;10.12;100.00;99618.38;6227117;28;20147;-91
2022/12/31 03:35:19;;;;;;;0.45;0.45;;;;;;;10.12;100.00;99633.06;6239823;28;20056;-91
2022/12/31 03:38:21;;;;;;;0.85;0.45;;;;;;;10.08;100.00;99642.88;6239152;28;20459;-91
2022/12/31 03:41:23;;;;;;;1.02;0.50;;;;;;;10.12;100.00;99622.72;6239333;28;20491;-90
2022/12/31 03:44:26;;;;;;;1.45;0.40;;;;;;;10.10;100.00;99607.34;6238727;28;20045;-91
2022/12/31 03:47:28;;;;;;;2.67;0.60;;;;;;;10.10;100.00;99607.34;6221545;28;20168;-90
2022/12/31 03:50:30;;;;;;;0.85;0.43;;;;;;;10.13;100.00;99601.06;6238797;28;20156;-89
2022/12/31 03:53:33;;;;;;;1.60;0.38;;;;;;;10.14;100.00;99595.78;6220393;28;20562;-90
2022/12/31 03:56:36;;;;;;;0.95;0.47;;;;;;;10.18;100.00;99585.94;6216572;28;20810;-90
2022/12/31 03:59:38;;;;;;;0.45;0.40;;;;;;;10.21;100.00;99588.28;6236167;28;20053;-90
2022/12/31 04:02:40;;;;;;;0.45;0.45;;;;;;;10.23;100.00;99580.34;6238118;28;20044;-91
2022/12/31 04:05:42;;;;;;;0.40;0.40;;;;;;;10.22;100.00;99578.75;6234678;28;20041;-90
2022/12/31 04:08:44;;;;;;;0.30;0.30;;;;;;;10.23;100.00;99565.66;6237477;28;20064;-90
2022/12/31 04:11:47;;;;;;;1.67;0.60;;;;;;;10.28;100.00;99565.25;6220364;28;20029;-90
2022/12/31 04:14:48;;;;;;;0.40;0.40;;;;;;;10.32;100.00;99558.84;6237718;28;20041;-90
2022/12/31 04:17:50;;;;;;;0.40;0.40;;;;;;;10.36;100.00;99557.63;6238024;28;20080;-90
2022/12/31 04:20:53;;;;;;;0.43;0.43;;;;;;;10.43;100.00;99553.47;6219745;28;20132;-90
2022/12/31 04:23:55;;;;;;;0.55;0.50;;;;;;;10.52;100.00;99542.25;6230304;28;20037;-91
2022/12/31 04:26:57;;;;;;;0.52;0.50;;;;;;;10.55;100.00;99551.50;6204135;28;20053;-90
2022/12/31 04:30:09;;;;;;;0.52;0.52;;;;;;;10.61;100.00;99544.94;6236258;28;20037;-91
2022/12/31 04:33:10;;;;;;;0.60;0.57;;;;;;;10.66;100.00;99545.31;6238501;28;20037;-91
2022/12/31 04:36:12;;;;;;;0.60;0.60;;;;;;;10.72;100.00;99542.16;6236685;28;20045;-91
2022/12/31 04:39:14;;;;;;;0.47;0.47;;;;;;;10.72;100.00;99537.78;6219534;28;20535;-91
2022/12/31 04:42:16;;;;;;;0.47;0.47;;;;;;;10.79;100.00;99553.53;6219389;28;20094;-90
2022/12/31 04:45:17;;;;;;;1.50;0.50;;;;;;;10.83;100.00;99556.63;6235327;28;20160;-90
2022/12/31 04:48:19;;;;;;;0.40;0.40;;;;;;;10.87;100.00;99584.69;6228306;28;20037;-90
2022/12/31 04:51:22;;;;;;;0.50;0.50;;;;;;;11.01;100.00;99608.47;6238687;28;20049;-88
2022/12/31 04:54:24;;;;;;;0.65;0.50;;;;;;;11.10;100.00;99629.09;6237493;28;20060;-87
2022/12/31 04:57:26;;;;;;;5.30;0.60;;;;;;;11.16;100.00;99672.56;6219726;28;20049;-89
2022/12/31 05:00:27;;;;;;;1.00;0.60;;;;;;;11.23;100.00;99662.44;6217534;28;20576;-89
2022/12/31 05:03:30;;;;;;;0.30;0.30;;;;;;;11.17;100.00;99657.81;6203924;28;20045;-88
2022/12/31 05:06:32;;;;;;;0.38;0.10;;;;;;;11.05;100.00;99644.25;6230721;28;20041;-88
2022/12/31 05:09:34;;;;;;;0.40;0.20;;;;;;;10.91;100.00;99621.47;6208382;28;20041;-89
2022/12/31 05:12:36;;;;;;;0.95;0.30;;;;;;;10.85;100.00;99633.19;6238145;28;20052;-89
2022/12/31 05:15:38;;;;;;;0.10;0.10;;;;;;;10.76;100.00;99626.31;6234505;28;20045;-89
2022/12/31 05:18:40;;;;;;;0.10;0.10;;;;;;;10.79;100.00;99618.25;6217207;28;20123;-90
2022/12/31 05:21:42;;;;;;;0.10;0.10;;;;;;;10.74;100.00;99612.69;6236895;28;20069;-90
2022/12/31 05:24:44;;;;;;;0.43;0.10;;;;;;;10.72;100.00;99618.00;6203310;28;20136;-89
2022/12/31 05:27:48;;;;;;;0.10;0.10;;;;;;;10.71;100.00;99649.25;6217827;28;20052;-88
2022/12/31 05:30:50;;;;;;;0.20;0.20;;;;;;;10.64;100.00;99648.19;6236526;28;20037;-89
2022/12/31 05:33:52;;;;;;;0.17;0.17;;;;;;;10.63;100.00;99668.03;6202231;28;20048;-89
2022/12/31 05:36:54;;;;;;;0.20;0.20;;;;;;;10.72;100.00;99666.38;6237428;28;20124;-88
2022/12/31 05:39:57;;;;;;;0.20;0.20;;;;;;;10.71;100.00;99672.53;6237456;28;20044;-88
2022/12/31 05:42:59;;;;;;;0.10;0.10;;;;;;;10.70;100.00;99686.41;6236827;28;20044;-88
2022/12/31 05:46:07;;;;;;;0.90;0.20;;;;;;;10.72;100.00;99703.44;6236239;28;20041;-88
2022/12/31 05:49:08;;;;;;;1.75;0.22;;;;;;;10.73;100.00;99705.06;6235859;28;20491;-88
2022/12/31 05:52:10;;;;;;;0.30;0.30;;;;;;;10.77;100.00;99690.88;6217995;28;20049;-88
2022/12/31 05:55:12;;;;;;;1.50;0.38;;;;;;;10.77;100.00;99700.41;6202846;28;20566;-89
2022/12/31 05:58:16;;;;;;;0.88;0.40;;;;;;;10.78;100.00;99679.56;6241307;28;20057;-89
2022/12/31 06:01:18;;;;;;;0.32;0.20;;;;;;;10.77;100.00;99684.88;6224408;28;20503;-89
2022/12/31 06:04:20;;;;;;;0.17;0.13;;;;;;;10.74;100.00;99677.41;6224131;28;20110;-88
2022/12/31 06:07:21;;;;;;;0.10;0.10;;;;;;;10.68;100.00;99668.47;6241445;28;20499;-89
2022/12/31 06:10:23;;;;;;;0.20;0.20;;;;;;;10.62;100.00;99668.19;6222516;28;20240;-89
2022/12/31 06:13:25;;;;;;;0.30;0.20;;;;;;;10.58;100.00;99659.88;6239841;28;20084;-89
2022/12/31 06:16:27;;;;;;;0.10;0.10;;;;;;;10.56;100.00;99667.81;6240422;28;20415;-89
2022/12/31 06:19:28;;;;;;;0.17;0.17;;;;;;;10.54;100.00;99661.97;6216904;28;20053;-90
2022/12/31 06:22:30;;;;;;;0.20;0.20;;;;;;;10.53;100.00;99668.09;6236290;28;20054;-90
2022/12/31 06:25:35;;;;;;;0.20;0.20;;;;;;;10.53;100.00;99667.25;6222524;28;20144;-90
2022/12/31 06:28:38;;;;;;;0.20;0.20;;;;;;;10.52;100.00;99668.25;6219451;28;20034;-91
2022/12/31 06:31:40;;;;;;;0.85;0.30;;;;;;;10.49;100.00;99671.91;6234206;28;20084;-91
2022/12/31 06:34:41;;;;;;;1.33;0.38;;;;;;;10.46;100.00;99685.16;6239025;28;20044;-90
2022/12/31 06:37:43;;;;;;;0.40;0.20;;;;;;;10.48;100.00;99679.81;6230002;28;20613;-90
2022/12/31 06:40:45;;;;;;;0.20;0.20;;;;;;;10.51;100.00;99688.13;6236465;28;20494;-90
2022/12/31 06:43:47;;;;;;;0.63;0.30;;;;;;;10.55;100.00;99688.66;6233780;28;20045;-90
2022/12/31 06:46:49;;;;;;;0.25;0.20;;;;;;;10.55;100.00;99688.66;6240497;28;20610;-90
2022/12/31 06:49:52;;;;;;;1.15;0.88;;;;;;;10.54;100.00;99692.22;6237455;28;20063;-90
2022/12/31 06:52:54;;;;;;;1.80;0.95;;;;;;;10.51;100.00;99672.59;6238302;28;20052;-90
2022/12/31 06:55:56;;;;;;;0.80;0.60;;;;;;;10.51;100.00;99677.78;6237493;28;20411;-91
2022/12/31 06:58:58;;;;;;;0.47;0.47;;;;;;;10.50;100.00;99670.97;6236647;28;20144;-91
2022/12/31 07:02:18;;;;;;;0.50;0.40;;;;;;;10.55;100.00;99673.13;6217106;28;20038;-90
2022/12/31 07:05:45;;;;;;;0.98;0.60;;;;;;;10.53;100.00;99668.09;6237216;28;20052;-91
2022/12/31 07:09:07;;;;;;;0.50;0.50;;;;;;;10.54;100.00;99656.78;6232205;28;20476;-90
2022/12/31 07:12:42;;;;;;;0.60;0.40;;;;;;;10.59;100.00;99661.53;6232451;28;20403;-90
2022/12/31 07:16:24;;;;;;;2.45;0.60;;;;;;;10.72;100.00;99658.63;6228141;28;20618;-91
2022/12/31 07:19:32;;;;;;;0.95;0.70;;;;;;;10.80;100.00;99682.00;6216548;28;20045;-92
2022/12/31 07:22:34;;;;;;;2.63;1.63;;;;;;;10.86;100.00;99652.16;6196502;28;20711;-91
2022/12/31 07:25:40;;;;;;;1.35;1.02;;;;;;;10.77;100.00;99613.22;6234649;28;20041;-91
2022/12/31 07:29:14;;;;;;;1.00;0.80;;;;;;;10.70;100.00;99717.47;6236267;28;20090;-90
2022/12/31 07:32:58;;;;;;;1.20;1.10;;;;;;;10.75;100.00;99671.25;6233502;28;20130;-89
2022/12/31 07:36:14;;;;;;;1.00;0.80;;;;;;;10.67;100.00;99655.66;6205289;28;20045;-86
2022/12/31 07:39:38;;;;;;;1.02;0.60;;;;;;;10.64;100.00;99694.75;6238952;28;20076;-85
2022/12/31 07:43:17;;;;;;;2.45;0.50;;;;;;;10.82;100.00;99715.53;6238450;28;20040;-85
2022/12/31 07:46:37;;;;;;;0.30;0.30;;;;;;;10.93;100.00;99749.81;6231633;28;20046;-87
2022/12/31 07:49:41;;;;;;;2.08;0.40;;;;;;;11.06;100.00;99740.91;6238837;28;20045;-86
2022/12/31 07:52:44;;;;;;;1.00;0.30;;;;;;;11.02;100.00;99739.56;6238090;28;20388;-86
2022/12/31 07:55:46;;;;;;;1.75;0.30;;;;;;;10.90;100.00;99742.31;6231241;28;20052;-86
2022/12/31 07:58:51;;;;;;;0.38;0.30;;;;;;;10.80;100.00;99748.50;6217025;28;20056;-86
2022/12/31 08:02:28;;;;;;;1.50;0.50;;;;;;;10.90;100.00;99749.28;6232995;28;20073;-86
2022/12/31 08:05:54;;;;;;;0.55;0.40;;;;;;;10.82;100.00;99747.41;6234850;28;20048;-86
2022/12/31 08:09:18;;;;;;;0.30;0.30;;;;;;;10.82;100.00;99762.94;6222705;28;20124;-86
2022/12/31 08:12:22;;;;;;;0.60;0.50;;;;;;;10.84;100.00;99755.84;6216084;28;20049;-87
2022/12/31 08:15:24;;;;;;;0.82;0.60;;;;;;;10.82;100.00;99767.31;6225497;28;20129;-87
2022/12/31 08:18:31;;;;;;;0.35;0.35;;;;;;;10.80;100.00;99779.56;6212236;28;20150;-87
2022/12/31 08:21:51;;;;;;;0.40;0.40;;;;;;;10.87;100.00;99773.69;6235303;28;20078;-87
2022/12/31 08:25:11;;;;;;;1.67;0.50;;;;;;;10.85;100.00;99782.56;6234789;28;20134;-87
2022/12/31 08:28:46;;;;;;;0.50;0.50;;;;;;;10.82;100.00;99788.00;6223453;28;20128;-87
2022/12/31 08:32:02;;;;;;;0.57;0.40;;;;;;;10.75;100.00;99775.63;6236443;28;20049;-86
2022/12/31 08:35:29;;;;;;;0.35;0.35;;;;;;;10.72;100.00;99773.31;6229316;28;20042;-86
2022/12/31 08:38:39;;;;;;;0.30;0.30;;;;;;;10.70;100.00;99782.19;6226256;28;20189;-86
2022/12/31 08:41:44;;;;;;;0.90;0.40;;;;;;;10.70;100.00;99783.00;6231800;28;20045;-86
2022/12/31 08:45:13;;;;;;;0.82;0.50;;;;;;;10.68;100.00;99781.50;6225077;28;20080;-86
2022/12/31 08:48:50;;;;;;;0.77;0.50;;;;;;;10.72;100.00;99798.41;6227489;28;20487;-86
2022/12/31 08:51:52;;;;;;;0.30;0.30;;;;;;;10.74;100.00;99796.50;6121274;28;20055;-86
2022/12/31 08:54:54;;;;;;;1.88;0.50;;;;;;;10.77;100.00;99796.19;6116564;29;20101;-87
2022/12/31 08:58:33;;;;;;;0.57;0.30;;;;;;;10.81;100.00;99799.31;6116548;29;20545;-87
2022/12/31 09:01:54;;;;;;;0.30;0.30;;;;;;;10.82;100.00;99788.81;6114838;29;20159;-86
2022/12/31 09:05:25;;;;;;;1.10;0.70;;;;;;;10.80;100.00;99774.38;6119757;29;20055;-86
2022/12/31 09:09:02;;;;;;;2.30;1.00;;;;;;;10.82;100.00;99773.28;6118202;29;20047;-86
2022/12/31 09:12:31;;;;;;;0.90;0.52;;;;;;;10.94;100.00;99766.97;6123623;29;20099;-87
2022/12/31 09:15:49;;;;;;;0.98;0.73;;;;;;;11.05;100.00;99776.34;6111859;28;20145;-87
2022/12/31 09:18:51;;;;;;;1.83;0.70;;;;;;;11.13;100.00;99776.47;6125372;28;20501;-87
2022/12/31 09:21:53;;;;;;;1.30;0.65;;;;;;;11.20;100.00;99781.84;6112947;29;20055;-87
2022/12/31 09:24:56;;;;;;;1.25;0.60;;;;;;;11.30;100.00;99785.22;6136293;28;20056;-87
2022/12/31 09:28:16;;;;;;;2.20;0.80;;;;;;;11.47;100.00;99775.03;6223669;28;20037;-87
2022/12/31 09:31:31;;;;;;;1.38;0.80;;;;;;;11.75;100.00;99788.78;6224430;28;20045;-87
2022/12/31 09:34:51;;;;;;;1.45;0.70;;;;;;;12.11;100.00;99787.03;6227950;28;20044;-87
2022/12/31 09:38:31;;;;;;;3.20;0.90;;;;;;;12.31;100.00;99785.09;6200725;28;20045;-88
2022/12/31 09:41:38;;;;;;;1.10;0.80;;;;;;;12.37;100.00;99784.50;6231315;28;20387;-89
2022/12/31 09:45:18;;;;;;;1.80;0.70;;;;;;;12.38;100.00;99780.94;6212159;28;20081;-88
2022/12/31 09:48:56;;;;;;;0.75;0.57;;;;;;;12.41;100.00;99777.22;6221811;28;20447;-89
2022/12/31 09:52:36;;;;;;;1.20;0.70;;;;;;;12.40;100.00;99776.41;6182646;28;20050;-89
2022/12/31 09:55:50;;;;;;;1.42;0.90;;;;;;;12.49;100.00;99761.69;6087288;29;20081;-88
2022/12/31 09:59:10;;;;;;;3.55;0.70;;;;;;;12.62;100.00;99746.53;6087493;29;20182;-89
2022/12/31 10:02:23;;;;;;;2.67;0.90;;;;;;;12.73;100.00;99750.66;6087265;29;20056;-89
2022/12/31 10:05:49;;;;;;;2.00;0.90;;;;;;;12.75;100.00;99727.94;6071769;29;20052;-89
2022/12/31 10:09:19;;;;;;;3.50;1.00;;;;;;;12.89;100.00;99734.31;6088576;29;20769;-91
2022/12/31 10:12:58;;;;;;;2.00;0.77;;;;;;;12.97;100.00;99726.59;6069455;29;20192;-91
2022/12/31 10:16:37;;;;;;;2.60;0.90;;;;;;;13.10;100.00;99713.97;6086598;29;20064;-92
2022/12/31 10:20:13;;;;;;;0.88;0.55;;;;;;;13.09;100.00;99707.16;6086934;29;20545;-92
2022/12/31 10:23:41;;;;;;;1.00;0.70;;;;;;;13.18;100.00;99701.97;6084115;29;20627;-93
2022/12/31 10:27:03;;;;;;;1.98;0.73;;;;;;;13.45;100.00;99683.53;6086913;29;20562;-92
2022/12/31 10:30:16;;;;;;;1.25;0.90;;;;;;;13.65;100.00;99652.03;6104345;29;20077;-92
2022/12/31 10:34:12;;;;;;;1.73;0.60;;;;;;;13.64;100.00;99666.81;6180770;28;20164;-92
2022/12/31 10:37:28;;;;;;;0.60;0.57;;;;;;;13.61;100.00;99642.91;6115101;29;20063;-93
2022/12/31 10:40:52;;;;;;;0.88;0.57;;;;;;;13.66;100.00;99656.25;6128792;28;20051;-93
2022/12/31 10:44:24;;;;;;;1.45;0.60;;;;;;;13.74;100.00;99643.25;6133309;29;20470;-94
2022/12/31 10:47:32;;;;;;;1.95;0.90;;;;;;;13.91;100.00;99639.66;6136257;29;20055;-93
2022/12/31 10:51:17;;;;;;;1.35;0.50;;;;;;;13.99;100.00;99624.03;6119632;29;20137;-94
2022/12/31 10:54:33;;;;;;;0.98;0.60;;;;;;;13.98;100.00;99619.78;6072584;29;20202;-94
2022/12/31 10:57:53;;;;;;;2.17;0.65;;;;;;;13.87;100.00;99625.34;6083122;29;20236;-93
2022/12/31 11:01:18;;;;;;;0.52;0.45;;;;;;;13.96;100.00;99623.53;6077981;29;20578;-93
2022/12/31 11:04:35;;;;;;;1.05;0.65;;;;;;;14.02;100.00;99641.09;6068966;29;20318;-93
2022/12/31 11:07:55;;;;;;;0.50;0.50;;;;;;;14.02;100.00;99635.09;6073909;29;20137;-92
2022/12/31 11:11:21;;;;;;;1.90;0.73;;;;;;;13.97;100.00;99666.81;6094995;29;20188;-92
2022/12/31 11:14:50;;;;;;;1.27;0.70;;;;;;;14.11;100.00;99657.50;6111777;28;20309;-92
2022/12/31 11:18:24;;;;;;;0.52;0.40;;;;;;;13.94;100.00;99680.16;6130918;28;20721;-92
2022/12/31 11:21:44;;;;;;;1.98;0.60;;;;;;;13.87;100.00;99682.56;6134992;28;20563;-92
2022/12/31 11:25:04;;;;;;;1.15;0.50;;;;;;;13.86;100.00;99704.34;6128101;28;20082;-91
2022/12/31 11:28:30;;;;;;;1.83;0.73;;;;;;;13.81;100.00;99727.44;6124442;28;20047;-91
2022/12/31 11:31:51;;;;;;;0.73;0.50;;;;;;;13.72;100.00;99741.44;6194786;28;20573;-91
2022/12/31 11:35:29;;;;;;;1.77;1.02;;;;;;;13.84;100.00;99775.72;6225176;28;20052;-89
2022/12/31 11:38:50;;;;;;;1.27;0.45;;;;;;;14.07;100.00;99724.69;6228147;28;20041;-88
2022/12/31 11:42:25;;;;;;;0.98;0.70;;;;;;;14.21;100.00;99741.44;6211350;28;20531;-90
2022/12/31 11:45:54;;;;;;;1.95;0.80;;;;;;;14.29;100.00;99727.59;6210525;28;20056;-90
2022/12/31 11:49:11;;;;;;;2.40;0.60;;;;;;;14.34;100.00;99714.91;6237728;28;20491;-90
2022/12/31 11:52:43;;;;;;;0.65;0.60;;;;;;;14.40;100.00;99707.22;6228910;28;20331;-90
2022/12/31 11:56:04;;;;;;;2.00;0.60;;;;;;;14.36;100.00;99716.38;6221119;28;20041;-90
2022/12/31 11:59:11;;;;;;;2.40;0.80;;;;;;;14.38;100.00;99724.00;6232208;28;20057;-90
2022/12/31 12:02:34;;;;;;;3.40;1.00;;;;;;;14.10;100.00;99726.97;6235428;28;20300;-91
2022/12/31 12:05:38;;;;;;;1.40;0.82;;;;;;;13.71;100.00;99745.00;6217214;28;20048;-91
2022/12/31 12:08:41;;;;;;;3.40;0.90;;;;;;;13.53;100.00;99764.13;6222351;28;20038;-90
2022/12/31 12:11:43;;;;;;;1.10;0.77;;;;;;;13.54;100.00;99773.59;6193367;28;20038;-90
2022/12/31 12:14:50;;;;;;;1.65;0.90;;;;;;;13.66;100.00;99770.66;6226789;28;20830;-89
2022/12/31 12:17:56;;;;;;;1.17;0.65;;;;;;;13.68;100.00;99756.53;6224603;28;20045;-87
2022/12/31 12:21:17;;;;;;;2.17;0.85;;;;;;;13.63;100.00;99763.19;6231198;28;20044;-89
2022/12/31 12:24:25;;;;;;;2.40;0.80;;;;;;;13.51;100.00;99771.28;6233313;28;20064;-89
2022/12/31 12:27:31;;;;;;;1.85;1.00;;;;;;;13.53;100.00;99765.94;6231402;28;20261;-87
2022/12/31 12:30:40;;;;;;;2.17;0.88;;;;;;;13.52;100.00;99770.31;6227887;28;20038;-88
2022/12/31 12:33:43;;;;;;;1.20;1.00;;;;;;;13.62;100.00;99761.56;6226608;28;20069;-89
2022/12/31 12:36:47;;;;;;;1.00;0.90;;;;;;;13.64;100.00;99757.00;6233218;28;20072;-87
2022/12/31 12:40:04;;;;;;;2.25;0.70;;;;;;;13.84;100.00;99744.50;6226827;28;20056;-90
2022/12/31 12:43:20;;;;;;;1.60;0.80;;;;;;;13.97;100.00;99732.66;6228076;28;20045;-89
2022/12/31 12:46:31;;;;;;;3.75;0.77;;;;;;;14.08;100.00;99720.28;6220585;28;20060;-93
2022/12/31 12:49:44;;;;;;;1.75;0.85;;;;;;;14.25;100.00;99721.91;6236889;28;20053;-94
2022/12/31 12:53:33;;;;;;;1.73;0.60;;;;;;;14.25;100.00;99713.28;6216297;28;20233;-94
2022/12/31 12:56:47;;;;;;;2.80;0.90;;;;;;;14.22;100.00;99706.63;6224644;28;20093;-94
2022/12/31 13:00:18;;;;;;;1.42;0.90;;;;;;;14.24;100.00;99704.66;6225360;28;20492;-94
2022/12/31 13:03:38;;;;;;;3.03;1.55;;;;;;;14.19;100.00;99725.19;6226746;28;20501;-94
2022/12/31 13:07:39;;;;;;;1.77;0.77;;;;;;;14.17;100.00;99740.94;6209169;28;20041;-92
2022/12/31 13:10:48;;;;;;;1.55;0.73;;;;;;;14.08;100.00;99748.91;6124590;28;20119;-90
2022/12/31 13:14:04;;;;;;;1.35;0.95;;;;;;;13.99;100.00;99745.53;6123070;29;20052;-90
2022/12/31 13:17:35;;;;;;;1.42;0.80;;;;;;;13.99;100.00;99741.13;6125285;28;20068;-91
2022/12/31 13:20:46;;;;;;;1.50;0.80;;;;;;;13.97;100.00;99750.06;6129572;28;20067;-90
2022/12/31 13:24:17;;;;;;;4.20;1.58;;;;;;;13.84;100.00;99736.72;6118761;29;20536;-90
2022/12/31 13:27:31;;;;;;;;;;;;;;;13.89;100.00;99745.66;6122290;29;20070;-91
2022/12/31 13:30:47;;;;;;;0.82;0.70;;;;;;;14.08;100.00;99734.09;6110313;29;20344;-91
2022/12/31 13:34:01;;;;;;;1.75;0.70;;;;;;;14.18;100.00;99744.34;6126128;29;20055;-90
2022/12/31 13:37:13;;;;;;;1.70;0.85;;;;;;;14.20;100.00;99729.41;6109050;29;20534;-91
2022/12/31 13:40:26;;;;;;;1.33;0.80;;;;;;;14.18;100.00;99744.34;6119595;28;20058;-91
2022/12/31 13:43:31;;;;;;;1.58;0.60;;;;;;;14.10;100.00;99741.75;6116491;29;20047;-91
2022/12/31 13:47:05;;;;;;;2.38;0.80;;;;;;;14.10;100.00;99746.97;6189245;28;20046;-90
2022/12/31 13:50:30;;;;;;;1.05;0.70;;;;;;;14.07;100.00;99729.09;6077931;29;20047;-90
2022/12/31 13:54:12;;;;;;;3.25;0.85;;;;;;;14.03;100.00;99722.56;6096274;29;20597;-90
2022/12/31 13:57:24;;;;;;;2.22;0.80;;;;;;;14.09;100.00;99732.34;6096516;29;20148;-91
2022/12/31 14:00:43;;;;;;;3.30;0.85;;;;;;;14.11;100.00;99725.16;6112010;29;20067;-90
2022/12/31 14:03:58;;;;;;;2.08;0.98;;;;;;;14.11;100.00;99720.78;6112215;29;20127;-90
2022/12/31 14:07:04;;;;;;;1.65;0.80;;;;;;;14.13;100.00;99729.22;6122093;29;20183;-90
2022/12/31 14:10:12;;;;;;;4.15;0.90;;;;;;;14.15;100.00;99731.69;6112184;29;20070;-90
2022/12/31 14:13:38;;;;;;;1.17;0.80;;;;;;;14.21;100.00;99741.44;6096466;29;20083;-90
2022/12/31 14:17:20;;;;;;;2.97;0.80;;;;;;;14.30;100.00;99732.63;6097466;29;20609;-90
2022/12/31 14:20:35;;;;;;;4.55;0.73;;;;;;;14.42;100.00;99720.91;6021470;29;20530;-90
2022/12/31 14:24:14;;;;;;;3.97;0.80;;;;;;;14.47;100.00;99724.81;6025249;29;20208;-90
2022/12/31 14:27:21;;;;;;;2.35;0.95;;;;;;;14.36;100.00;99744.16;6092669;28;20074;-90
2022/12/31 14:30:35;;;;;;;2.03;0.80;;;;;;;14.40;100.00;99737.66;6123889;29;20063;-90
2022/12/31 14:34:14;;;;;;;1.20;0.80;;;;;;;14.33;100.00;99752.31;6116700;29;20047;-90
2022/12/31 14:37:22;;;;;;;2.05;1.00;;;;;;;14.15;100.00;99752.50;6138823;28;20093;-89
2022/12/31 14:40:40;;;;;;;3.33;1.13;;;;;;;14.10;100.00;99766.00;6124239;29;20055;-90
2022/12/31 14:44:23;;;;;;;2.65;0.77;;;;;;;14.10;100.00;99758.19;6133087;29;20274;-89
2022/12/31 14:47:35;;;;;;;2.30;0.70;;;;;;;14.09;100.00;99761.78;6128694;29;20048;-88
2022/12/31 14:50:37;;;;;;;1.65;0.68;;;;;;;14.14;100.00;99776.91;6138567;29;20626;-89
2022/12/31 14:53:50;;;;;;;1.40;0.88;;;;;;;14.12;100.00;99771.06;6129948;28;20130;-89
2022/12/31 14:56:52;;;;;;;0.73;0.65;;;;;;;14.03;100.00;99770.22;6192947;28;20115;-89
2022/12/31 14:59:56;;;;;;;4.53;1.13;;;;;;;14.04;100.00;99794.47;6232305;28;20042;-88
2022/12/31 15:03:26;;;;;;;1.40;0.70;;;;;;;14.02;100.00;99815.44;6230978;28;20042;-88
2022/12/31 15:06:40;;;;;;;3.13;1.10;;;;;;;14.08;100.00;99804.38;6140491;28;20055;-89